createdAt,value
2019-02-25T00:00:15.913Z,37.06
2019-02-25T00:02:44.290Z,37.70
2019-02-25T00:05:12.715Z,38.20
2019-02-25T00:07:41.082Z,38.63
2019-02-25T00:10:10.310Z,39.30
2019-02-25T00:12:38.880Z,38.37
2019-02-25T00:15:09.318Z,38.12
2019-02-25T00:17:39.844Z,38.37
2019-02-25T00:20:14.032Z,37.89
2019-02-25T00:22:42.307Z,37.79
2019-02-25T00:25:14.029Z,38.67
2019-02-25T00:27:42.324Z,38.55
2019-02-25T00:30:12.670Z,37.65
2019-02-25T00:32:40.988Z,38.99
2019-02-25T00:35:09.414Z,39.51
2019-02-25T00:37:37.728Z,39.10
2019-02-25T00:40:08.668Z,39.76
2019-02-25T00:42:36.959Z,40.49
2019-02-25T00:45:10.536Z,39.82
2019-02-25T00:47:38.865Z,40.27
2019-02-25T00:50:12.763Z,39.37
2019-02-25T00:52:41.051Z,41.16
2019-02-25T00:55:10.181Z,41.49
2019-02-25T00:57:38.502Z,41.58
2019-02-25T01:00:15.470Z,41.44
2019-02-25T01:02:43.792Z,40.62
2019-02-25T01:05:12.292Z,40.99
2019-02-25T01:07:40.775Z,41.16
2019-02-25T01:10:11.069Z,40.80
2019-02-25T01:12:39.628Z,41.16
2019-02-25T01:15:09.532Z,41.29
2019-02-25T01:17:37.922Z,40.65
2019-02-25T01:20:11.724Z,40.93
2019-02-25T01:22:40.778Z,40.83
2019-02-25T01:25:10.998Z,40.98
2019-02-25T01:27:39.310Z,40.66
2019-02-25T01:30:16.234Z,41.61
2019-02-25T01:32:44.558Z,40.85
2019-02-25T01:35:13.475Z,40.66
2019-02-25T01:37:41.860Z,41.45
2019-02-25T01:40:11.790Z,41.56
2019-02-25T01:42:40.223Z,41.45
2019-02-25T01:45:19.375Z,41.46
2019-02-25T01:47:47.830Z,41.58
2019-02-25T01:50:16.588Z,42.25
2019-02-25T01:52:44.871Z,42.50
2019-02-25T01:55:13.830Z,42.59
2019-02-25T01:57:42.181Z,42.25
2019-02-25T02:00:17.939Z,42.22
2019-02-25T02:02:46.293Z,41.92
2019-02-25T02:05:14.676Z,42.16
2019-02-25T02:07:43.272Z,42.12
2019-02-25T02:10:14.781Z,43.21
2019-02-25T02:12:43.093Z,42.34
2019-02-25T02:15:13.935Z,42.64
2019-02-25T02:17:42.268Z,42.97
2019-02-25T02:20:15.559Z,43.10
2019-02-25T02:22:43.875Z,43.66
2019-02-25T02:25:13.184Z,44.25
2019-02-25T02:27:41.600Z,44.99
2019-02-25T02:30:23.678Z,44.46
2019-02-25T02:32:51.952Z,43.92
2019-02-25T02:35:20.280Z,43.39
2019-02-25T02:37:48.696Z,43.71
2019-02-25T02:40:17.101Z,43.20
2019-02-25T02:43:00.166Z,42.97
2019-02-25T02:45:37.972Z,42.96
2019-02-25T02:48:15.685Z,43.32
2019-02-25T02:50:44.079Z,43.67
2019-02-25T02:53:12.515Z,43.68
2019-02-25T02:55:40.956Z,43.77
2019-02-25T02:58:09.405Z,43.09
2019-02-25T03:00:38.472Z,44.48
2019-02-25T03:03:06.743Z,44.79
2019-02-25T03:05:35.149Z,44.84
2019-02-25T03:08:03.437Z,44.98
2019-02-25T03:10:31.797Z,44.76
2019-02-25T03:13:00.054Z,44.96
2019-02-25T03:15:28.661Z,44.96
2019-02-25T03:17:57.002Z,44.80
2019-02-25T03:20:25.308Z,45.40
2019-02-25T03:22:53.630Z,45.80
2019-02-25T03:25:21.905Z,45.08
2019-02-25T03:27:50.297Z,45.05
2019-02-25T03:30:20.166Z,45.31
2019-02-25T03:32:48.557Z,44.78
2019-02-25T03:35:16.909Z,45.30
2019-02-25T03:37:45.204Z,45.35
2019-02-25T03:40:16.840Z,45.46
2019-02-25T03:42:45.165Z,45.60
2019-02-25T03:45:15.408Z,45.50
2019-02-25T03:47:43.953Z,45.32
2019-02-25T03:50:12.586Z,44.87
2019-02-25T03:52:40.986Z,45.59
2019-02-25T03:55:11.902Z,45.67
2019-02-25T03:57:40.295Z,46.72
2019-02-25T04:00:14.321Z,45.56
2019-02-25T04:02:42.668Z,45.88
2019-02-25T04:05:11.221Z,45.52
2019-02-25T04:07:39.679Z,44.94
2019-02-25T04:10:10.643Z,45.01
2019-02-25T04:12:39.100Z,45.34
2019-02-25T04:15:11.171Z,45.69
2019-02-25T04:17:39.475Z,45.45
2019-02-25T04:20:13.545Z,46.31
2019-02-25T04:22:41.902Z,45.87
2019-02-25T04:25:10.411Z,45.79
2019-02-25T04:27:38.704Z,46.20
2019-02-25T04:30:17.626Z,45.42
2019-02-25T04:32:45.964Z,45.31
2019-02-25T04:35:14.911Z,45.70
2019-02-25T04:37:43.605Z,45.65
2019-02-25T04:40:13.154Z,46.74
2019-02-25T04:42:41.535Z,46.16
2019-02-25T04:45:21.104Z,45.48
2019-02-25T04:47:49.449Z,45.69
2019-02-25T04:50:17.945Z,46.31
2019-02-25T04:52:46.308Z,46.41
2019-02-25T04:55:15.667Z,46.21
2019-02-25T04:57:44.042Z,45.95
2019-02-25T05:00:15.134Z,46.17
2019-02-25T05:02:43.449Z,45.94
2019-02-25T05:05:11.843Z,46.77
2019-02-25T05:07:40.120Z,45.25
2019-02-25T05:10:11.510Z,45.91
2019-02-25T05:12:41.433Z,45.32
2019-02-25T05:15:12.347Z,45.86
2019-02-25T05:17:40.700Z,45.55
2019-02-25T05:20:09.590Z,45.53
2019-02-25T05:22:37.883Z,45.91
2019-02-25T05:25:11.089Z,45.80
2019-02-25T05:27:39.401Z,46.36
2019-02-25T05:30:10.928Z,45.99
2019-02-25T05:32:39.492Z,46.46
2019-02-25T05:35:09.845Z,46.54
2019-02-25T05:37:38.200Z,46.41
2019-02-25T05:40:09.714Z,46.45
2019-02-25T05:42:38.342Z,46.57
2019-02-25T05:45:07.380Z,47.16
2019-02-25T05:47:35.874Z,47.28
2019-02-25T05:50:07.249Z,47.44
2019-02-25T05:52:35.757Z,47.01
2019-02-25T05:55:06.949Z,48.98
2019-02-25T05:57:35.269Z,48.19
2019-02-25T06:00:04.884Z,48.31
2019-02-25T06:02:33.200Z,48.00
2019-02-25T06:05:01.574Z,48.20
2019-02-25T06:07:30.077Z,48.65
2019-02-25T06:09:58.481Z,48.84
2019-02-25T06:12:26.858Z,47.99
2019-02-25T06:14:55.170Z,48.03
2019-02-25T06:17:23.523Z,47.61
2019-02-25T06:19:52.119Z,47.65
2019-02-25T06:22:20.569Z,47.54
2019-02-25T06:24:48.936Z,47.52
2019-02-25T06:27:17.412Z,47.74
2019-02-25T06:29:45.785Z,48.14
2019-02-25T06:32:14.105Z,47.85
2019-02-25T06:34:42.447Z,47.93
2019-02-25T06:37:10.878Z,48.09
2019-02-25T06:39:39.232Z,48.63
2019-02-25T06:42:07.857Z,47.36
2019-02-25T06:44:36.312Z,48.53
2019-02-25T06:47:05.481Z,48.02
2019-02-25T06:49:33.815Z,47.66
2019-02-25T06:52:02.185Z,47.71
2019-02-25T06:54:30.497Z,47.98
2019-02-25T06:56:58.794Z,47.38
2019-02-25T06:59:27.173Z,47.26
2019-02-25T07:01:55.701Z,47.83
2019-02-25T07:04:31.524Z,46.97
2019-02-25T07:07:04.607Z,46.49
2019-02-25T07:09:34.878Z,47.16
2019-02-25T07:12:05.906Z,40.25
2019-02-25T07:14:48.001Z,34.21
2019-02-25T07:17:24.052Z,29.89
2019-02-25T07:20:09.996Z,27.99
2019-02-25T07:22:42.622Z,26.82
2019-02-25T07:25:12.715Z,26.32
2019-02-25T07:27:45.116Z,24.96
2019-02-25T07:30:33.538Z,24.54
2019-02-25T07:33:03.480Z,22.69
2019-02-25T07:35:39.018Z,22.20
2019-02-25T07:38:14.716Z,21.96
2019-02-25T07:41:04.019Z,19.31
2019-02-25T07:43:39.665Z,19.31
2019-02-25T07:46:10.055Z,18.70
2019-02-25T07:48:45.672Z,16.81
2019-02-25T07:51:15.775Z,16.28
2019-02-25T07:53:54.976Z,15.04
2019-02-25T07:56:27.993Z,14.13
2019-02-25T07:59:07.154Z,14.39
2019-02-25T08:01:46.392Z,13.44
2019-02-25T08:04:19.426Z,12.72
2019-02-25T08:06:55.057Z,12.20
2019-02-25T08:09:34.127Z,12.19
2019-02-25T08:12:07.312Z,11.84
2019-02-25T08:14:46.624Z,12.20
2019-02-25T08:17:19.627Z,11.97
2019-02-25T08:19:52.114Z,11.57
2019-02-25T08:22:22.963Z,11.82
2019-02-25T08:24:52.977Z,10.92
2019-02-25T08:27:31.863Z,10.37
2019-02-25T08:30:27.774Z,10.33
2019-02-25T08:33:00.705Z,10.35
2019-02-25T08:36:07.000Z,10.39
2019-02-25T08:38:56.177Z,9.76
2019-02-25T08:41:34.993Z,9.94
2019-02-25T08:44:13.336Z,10.76
2019-02-25T08:46:43.352Z,10.59
2019-02-25T08:49:13.362Z,10.25
2019-02-25T08:51:41.734Z,9.90
2019-02-25T08:54:10.155Z,9.49
2019-02-25T08:56:38.615Z,9.35
2019-02-25T08:59:07.029Z,9.46
2019-02-25T09:01:35.479Z,9.86
2019-02-25T09:04:03.811Z,10.28
2019-02-25T09:06:32.168Z,10.09
2019-02-25T09:09:00.744Z,10.12
2019-02-25T09:11:29.251Z,9.98
2019-02-25T09:13:57.714Z,10.09
2019-02-25T09:16:26.109Z,10.07
2019-02-25T09:18:54.561Z,10.37
2019-02-25T09:21:31.389Z,10.04
2019-02-25T09:23:52.971Z,9.63
2019-02-25T09:26:21.302Z,10.08
2019-02-25T09:28:49.674Z,9.42
2019-02-25T09:31:17.999Z,9.58
2019-02-25T09:33:46.328Z,9.59
2019-02-25T09:36:14.833Z,9.37
2019-02-25T09:38:43.199Z,9.44
2019-02-25T09:41:11.609Z,9.68
2019-02-25T09:43:39.913Z,9.10
2019-02-25T09:46:10.664Z,9.74
2019-02-25T09:48:39.169Z,10.11
2019-02-25T09:51:07.488Z,9.55
2019-02-25T09:53:35.860Z,10.31
2019-02-25T09:56:04.518Z,9.44
2019-02-25T09:58:33.075Z,9.65
2019-02-25T10:01:01.598Z,9.73
2019-02-25T10:03:29.899Z,9.72
2019-02-25T10:05:58.200Z,9.49
2019-02-25T10:08:26.556Z,9.95
2019-02-25T10:10:54.860Z,9.73
2019-02-25T10:13:23.266Z,9.83
2019-02-25T10:15:51.639Z,9.41
2019-02-25T10:18:20.101Z,9.86
2019-02-25T10:20:48.500Z,9.82
2019-02-25T10:23:16.831Z,9.42
2019-02-25T10:25:45.228Z,8.69
2019-02-25T10:28:13.643Z,9.87
2019-02-25T10:30:41.932Z,9.10
2019-02-25T10:33:10.287Z,9.31
2019-02-25T10:35:38.568Z,9.40
2019-02-25T10:38:06.950Z,9.30
2019-02-25T10:40:35.316Z,8.71
2019-02-25T10:43:03.746Z,8.94
2019-02-25T10:45:32.017Z,8.97
2019-02-25T10:48:00.805Z,8.88
2019-02-25T10:50:31.150Z,9.23
2019-02-25T10:53:03.516Z,8.67
2019-02-25T10:55:35.384Z,9.18
2019-02-25T10:58:04.341Z,9.41
2019-02-25T11:00:32.832Z,8.96
2019-02-25T11:03:01.337Z,9.39
2019-02-25T11:05:30.573Z,9.13
2019-02-25T11:08:00.092Z,10.03
2019-02-25T11:10:30.138Z,10.31
2019-02-25T11:12:59.964Z,9.90
2019-02-25T11:15:29.423Z,9.37
2019-02-25T11:17:57.849Z,10.58
2019-02-25T11:20:27.329Z,10.13
2019-02-25T11:22:56.655Z,11.20
2019-02-25T11:25:26.278Z,10.55
2019-02-25T11:27:55.016Z,9.81
2019-02-25T11:30:23.985Z,9.87
2019-02-25T11:32:53.938Z,10.46
2019-02-25T11:35:23.260Z,9.87
2019-02-25T11:37:52.473Z,9.31
2019-02-25T11:40:21.826Z,9.73
2019-02-25T11:42:51.021Z,10.19
2019-02-25T11:45:21.202Z,10.90
2019-02-25T11:47:49.599Z,10.36
2019-02-25T11:50:20.357Z,10.77
2019-02-25T11:52:48.712Z,10.86
2019-02-25T11:55:17.373Z,11.54
2019-02-25T11:57:45.760Z,11.33
2019-02-25T12:00:19.656Z,10.96
2019-02-25T12:02:47.953Z,11.29
2019-02-25T12:05:17.930Z,11.42
2019-02-25T12:07:46.498Z,11.18
2019-02-25T12:10:17.713Z,11.06
2019-02-25T12:12:46.122Z,12.37
2019-02-25T12:15:22.426Z,12.92
2019-02-25T12:17:50.871Z,12.15
2019-02-25T12:20:19.596Z,11.63
2019-02-25T12:22:48.072Z,11.55
2019-02-25T12:25:24.026Z,11.38
2019-02-25T12:27:52.431Z,11.87
2019-02-25T12:30:23.268Z,12.85
2019-02-25T12:32:51.594Z,12.43
2019-02-25T12:35:20.138Z,12.03
2019-02-25T12:37:49.760Z,12.49
2019-02-25T12:40:19.073Z,12.45
2019-02-25T12:42:48.255Z,12.01
2019-02-25T12:45:17.264Z,12.27
2019-02-25T12:47:46.288Z,12.12
2019-02-25T12:50:17.023Z,13.17
2019-02-25T12:52:46.450Z,12.23
2019-02-25T12:55:19.295Z,12.74
2019-02-25T12:57:48.565Z,13.05
2019-02-25T13:00:22.338Z,13.59
2019-02-25T13:02:50.911Z,13.07
2019-02-25T13:05:24.443Z,13.25
2019-02-25T13:07:53.557Z,14.66
2019-02-25T13:10:23.050Z,14.58
2019-02-25T13:12:53.562Z,15.74
2019-02-25T13:15:24.381Z,17.13
2019-02-25T13:17:52.858Z,17.75
2019-02-25T13:20:21.187Z,17.52
2019-02-25T13:22:49.669Z,17.43
2019-02-25T13:25:26.732Z,17.16
2019-02-25T13:27:56.939Z,17.36
2019-02-25T13:30:25.807Z,18.02
2019-02-25T13:32:54.127Z,18.95
2019-02-25T13:35:22.582Z,19.00
2019-02-25T13:37:51.056Z,19.95
2019-02-25T13:40:19.517Z,19.44
2019-02-25T13:42:48.166Z,19.86
2019-02-25T13:45:21.212Z,20.68
2019-02-25T13:47:49.588Z,20.29
2019-02-25T13:50:18.800Z,19.56
2019-02-25T13:52:48.468Z,18.91
2019-02-25T13:55:21.787Z,19.59
2019-02-25T13:57:50.161Z,19.48
2019-02-25T14:00:21.936Z,20.05
2019-02-25T14:02:50.489Z,20.73
2019-02-25T14:05:18.901Z,20.35
2019-02-25T14:07:47.320Z,20.86
2019-02-25T14:10:19.239Z,20.84
2019-02-25T14:12:47.619Z,20.63
2019-02-25T14:15:25.559Z,20.87
2019-02-25T14:17:53.867Z,21.58
2019-02-25T14:20:26.037Z,21.81
2019-02-25T14:22:54.416Z,22.29
2019-02-25T14:25:27.387Z,22.04
2019-02-25T14:27:56.149Z,22.15
2019-02-25T14:30:26.682Z,22.75
2019-02-25T14:32:55.870Z,22.88
2019-02-25T14:35:28.770Z,22.87
2019-02-25T14:38:02.468Z,23.02
2019-02-25T14:40:32.061Z,23.58
2019-02-25T14:42:59.983Z,23.62
2019-02-25T14:45:31.515Z,23.76
2019-02-25T14:47:59.907Z,23.42
2019-02-25T14:50:29.301Z,23.68
2019-02-25T14:52:57.723Z,23.85
2019-02-25T14:55:26.379Z,23.70
2019-02-25T14:57:55.258Z,23.40
2019-02-25T15:00:31.417Z,24.06
2019-02-25T15:02:58.793Z,24.56
2019-02-25T15:05:27.186Z,25.17
2019-02-25T15:07:55.656Z,25.77
2019-02-25T15:10:29.115Z,25.53
2019-02-25T15:12:58.672Z,25.41
2019-02-25T15:15:24.735Z,25.63
2019-02-25T15:17:53.178Z,26.59
2019-02-25T15:20:24.042Z,26.40
2019-02-25T15:22:53.644Z,26.42
2019-02-25T15:25:22.471Z,26.14
2019-02-25T15:27:51.089Z,26.19
2019-02-25T15:30:22.903Z,26.08
2019-02-25T15:32:55.536Z,26.65
2019-02-25T15:35:26.539Z,26.99
2019-02-25T15:37:55.158Z,27.01
2019-02-25T15:40:25.094Z,27.01
2019-02-25T15:43:12.644Z,27.81
2019-02-25T15:45:42.433Z,28.14
2019-02-25T15:48:22.985Z,28.42
2019-02-25T15:50:55.976Z,28.79
2019-02-25T15:53:25.995Z,29.25
2019-02-25T15:55:56.921Z,29.51
2019-02-25T15:58:25.079Z,29.75
2019-02-25T16:00:53.458Z,30.00
2019-02-25T16:03:22.139Z,30.27
2019-02-25T16:05:52.490Z,30.73
2019-02-25T16:08:21.297Z,30.92
2019-02-25T16:10:51.734Z,30.67
2019-02-25T16:13:21.038Z,30.50
2019-02-25T16:15:49.356Z,31.22
2019-02-25T16:18:18.091Z,31.21
2019-02-25T16:20:46.501Z,31.54
2019-02-25T16:23:14.819Z,32.11
2019-02-25T16:25:43.693Z,32.17
2019-02-25T16:28:13.051Z,32.06
2019-02-25T16:30:42.927Z,32.07
2019-02-25T16:33:14.324Z,31.92
2019-02-25T16:35:43.535Z,32.26
2019-02-25T16:38:12.406Z,32.33
2019-02-25T16:40:40.815Z,32.58
2019-02-25T16:43:10.464Z,32.48
2019-02-25T16:45:41.652Z,33.51
2019-02-25T16:48:11.554Z,33.75
2019-02-25T16:50:43.381Z,34.29
2019-02-25T16:53:10.897Z,33.90
2019-02-25T16:55:42.787Z,33.74
2019-02-25T16:58:13.213Z,33.70
2019-02-25T17:00:41.848Z,33.92
2019-02-25T17:03:11.200Z,34.52
2019-02-25T17:05:42.883Z,35.03
2019-02-25T17:08:12.851Z,35.04
2019-02-25T17:10:41.393Z,34.90
2019-02-25T17:13:10.362Z,34.82
2019-02-25T17:15:39.989Z,34.83
2019-02-25T17:18:08.875Z,35.12
2019-02-25T17:20:37.267Z,34.87
2019-02-25T17:23:09.466Z,35.53
2019-02-25T17:25:36.856Z,35.59
2019-02-25T17:28:08.144Z,36.14
2019-02-25T17:30:37.981Z,36.29
2019-02-25T17:33:10.013Z,36.69
2019-02-25T17:35:38.519Z,37.14
2019-02-25T17:38:06.975Z,37.09
2019-02-25T17:40:35.362Z,37.14
2019-02-25T17:43:03.787Z,37.36
2019-02-25T17:45:34.378Z,37.28
2019-02-25T17:48:05.436Z,36.93
2019-02-25T17:50:34.762Z,36.96
2019-02-25T17:53:03.287Z,37.44
2019-02-25T17:55:34.469Z,37.79
2019-02-25T17:58:03.052Z,37.89
2019-02-25T18:00:41.728Z,38.40
2019-02-25T18:03:09.508Z,38.09
2019-02-25T18:05:40.791Z,38.46
2019-02-25T18:08:12.375Z,38.98
2019-02-25T18:10:40.772Z,39.06
2019-02-25T18:13:11.026Z,39.41
2019-02-25T18:15:39.753Z,39.33
2019-02-25T18:18:11.683Z,39.82
2019-02-25T18:20:38.982Z,39.87
2019-02-25T18:23:07.620Z,39.80
2019-02-25T18:25:37.665Z,40.08
2019-02-25T18:28:08.388Z,40.36
2019-02-25T18:30:36.623Z,40.41
2019-02-25T18:33:05.468Z,40.79
2019-02-25T18:35:36.210Z,41.30
2019-02-25T18:38:05.384Z,41.25
2019-02-25T18:40:35.847Z,40.93
2019-02-25T18:43:06.781Z,41.00
2019-02-25T18:45:37.862Z,40.84
2019-02-25T18:48:07.124Z,41.18
2019-02-25T18:50:39.276Z,41.33
2019-02-25T18:53:07.333Z,41.81
2019-02-25T18:55:36.749Z,41.53
2019-02-25T18:58:07.947Z,42.15
2019-02-25T19:00:40.025Z,42.68
2019-02-25T19:03:09.348Z,42.78
2019-02-25T19:05:37.948Z,43.50
2019-02-25T19:08:16.838Z,44.01
2019-02-25T19:10:45.536Z,44.38
2019-02-25T19:13:15.929Z,46.08
2019-02-25T19:15:43.830Z,45.59
2019-02-25T19:18:13.226Z,44.39
2019-02-25T19:20:43.376Z,45.05
2019-02-25T19:23:13.886Z,44.36
2019-02-25T19:25:42.831Z,44.09
2019-02-25T19:28:13.940Z,44.25
2019-02-25T19:30:42.728Z,43.69
2019-02-25T19:33:11.693Z,44.36
2019-02-25T19:35:40.854Z,44.32
2019-02-25T19:38:12.763Z,45.86
2019-02-25T19:40:40.843Z,45.78
2019-02-25T19:43:11.035Z,46.68
2019-02-25T19:45:40.803Z,47.73
2019-02-25T19:48:09.970Z,47.49
2019-02-25T19:51:20.573Z,47.14
2019-02-25T19:53:53.602Z,48.02
2019-02-25T19:59:34.665Z,47.70
2019-02-25T20:05:24.132Z,48.86
2019-02-25T20:08:13.253Z,48.37
2019-02-25T20:10:46.600Z,48.37
2019-02-25T20:13:21.870Z,48.63
2019-02-25T20:15:51.205Z,49.63
2019-02-25T20:18:20.659Z,49.63
2019-02-25T20:20:49.324Z,49.26
2019-02-25T20:23:20.242Z,49.71
2019-02-25T20:25:51.018Z,49.21
2019-02-25T20:28:20.735Z,49.21
2019-02-25T20:30:51.497Z,49.62
2019-02-25T20:33:19.928Z,49.54
2019-02-25T20:35:51.181Z,48.46
2019-02-25T20:38:18.568Z,48.46
2019-02-25T20:40:50.806Z,48.00
2019-02-25T20:43:19.394Z,49.97
2019-02-25T20:45:48.167Z,50.92
2019-02-25T20:48:17.694Z,52.20
2019-02-25T20:50:46.023Z,52.05
2019-02-25T20:53:14.462Z,51.53
2019-02-25T20:55:42.937Z,51.26
2019-02-25T20:58:13.489Z,51.26
2019-02-25T21:00:42.428Z,51.62
2019-02-25T21:03:13.979Z,51.62
2019-02-25T21:05:41.877Z,50.44
2019-02-25T21:08:12.297Z,50.44
2019-02-25T21:10:40.502Z,50.96
2019-02-25T21:13:08.817Z,50.49
2019-02-25T21:15:38.407Z,51.05
2019-02-25T21:18:07.827Z,52.24
2019-02-25T21:20:36.243Z,52.97
2019-02-25T21:23:05.979Z,52.97
2019-02-25T21:25:36.780Z,53.08
2019-02-25T21:28:06.791Z,53.15
2019-02-25T21:30:39.156Z,53.15
2019-02-25T21:33:06.044Z,53.06
2019-02-25T21:35:37.206Z,52.92
2019-02-25T21:38:04.967Z,53.91
2019-02-25T21:40:33.304Z,53.67
2019-02-25T21:43:01.649Z,53.67
2019-02-25T21:45:32.353Z,52.68
2019-02-25T21:48:01.876Z,52.38
2019-02-25T21:50:32.993Z,52.83
2019-02-25T21:53:00.525Z,52.82
2019-02-25T21:55:30.988Z,53.79
2019-02-25T21:58:00.718Z,53.79
2019-02-25T22:00:31.981Z,54.03
2019-02-25T22:02:59.175Z,54.68
2019-02-25T22:05:27.464Z,56.36
2019-02-25T22:07:57.786Z,56.36
2019-02-25T22:10:25.855Z,56.24
2019-02-25T22:12:54.301Z,56.76
2019-02-25T22:15:22.759Z,56.76
2019-02-25T22:17:53.297Z,56.11
2019-02-25T22:20:22.592Z,57.00
2019-02-25T22:22:54.553Z,57.00
2019-02-25T22:25:22.724Z,56.78
2019-02-25T22:27:51.017Z,56.03
2019-02-25T22:30:19.526Z,55.69
2019-02-25T22:32:47.910Z,55.74
2019-02-25T22:35:16.203Z,56.01
2019-02-25T22:37:49.000Z,56.43
2019-02-25T22:40:17.184Z,56.91
2019-02-25T22:42:47.970Z,56.68
2019-02-25T22:45:18.956Z,57.20
2019-02-25T22:47:50.536Z,57.46
2019-02-25T22:50:24.086Z,57.60
2019-02-25T22:52:58.205Z,56.87
2019-02-25T22:55:22.730Z,56.48
2019-02-25T22:57:53.936Z,56.11
2019-02-25T23:00:43.309Z,56.22
2019-02-25T23:03:15.213Z,57.45
2019-02-25T23:05:43.623Z,57.90
2019-02-25T23:08:13.173Z,58.59
2019-02-25T23:10:44.465Z,58.28
2019-02-25T23:13:12.842Z,59.05
2019-02-25T23:15:43.813Z,59.29
2019-02-25T23:18:13.885Z,59.47
2019-02-25T23:20:41.515Z,58.37
2019-02-25T23:23:10.078Z,57.78
2019-02-25T23:25:38.459Z,57.94
2019-02-25T23:28:06.768Z,57.59
2019-02-25T23:30:39.101Z,57.73
2019-02-25T23:33:05.185Z,56.59
2019-02-25T23:35:33.556Z,56.59
2019-02-25T23:38:01.886Z,56.82
2019-02-25T23:40:33.293Z,57.42
2019-02-25T23:43:01.461Z,57.11
2019-02-25T23:45:30.543Z,57.34
2019-02-25T23:47:59.718Z,56.68
2019-02-25T23:50:29.762Z,57.06
2019-02-25T23:52:59.223Z,57.08
2019-02-25T23:55:29.500Z,57.26
2019-02-25T23:57:57.581Z,57.78
